Time;durP1;ratioP1;P1;durP2;ratioP2;P2;SDS_P1;SDS_P2;PMS_P1;PMS_P2;Temp;Humidity;BMP_temperature;BMP_pressure;BME280_temperature;BME280_humidity;BME280_pressure;Samples;Min_cycle;Max_cycle;Signal;HPM_P1;HPM_P2
2021/12/07 00:02:09;;;;;;;0.20;0.20;;;;;;;-1.93;100.00;100323.94;4998633;28;20043;-82
2021/12/07 00:04:43;;;;;;;0.30;0.30;;;;;;;-1.91;100.00;100313.06;4995910;28;20053;-80
2021/12/07 00:07:11;;;;;;;0.20;0.20;;;;;;;-1.81;100.00;100329.50;4993623;28;20046;-82
2021/12/07 00:09:49;;;;;;;0.20;0.20;;;;;;;-1.82;100.00;100325.19;4992251;28;20046;-82
2021/12/07 00:12:27;;;;;;;0.10;0.10;;;;;;;-1.80;100.00;100315.09;4998356;28;20042;-81
2021/12/07 00:15:03;;;;;;;0.20;0.20;;;;;;;-1.83;100.00;100318.19;4998695;28;20045;-81
2021/12/07 00:17:32;;;;;;;0.20;0.20;;;;;;;-1.82;100.00;100317.19;4991911;28;20104;-82
2021/12/07 00:20:09;;;;;;;0.20;0.20;;;;;;;-1.82;100.00;100321.66;5007002;28;20047;-82
2021/12/07 00:22:45;;;;;;;0.20;0.20;;;;;;;-1.81;100.00;100315.31;4990581;28;20046;-82
2021/12/07 00:25:18;;;;;;;0.20;0.20;;;;;;;-1.81;100.00;100308.16;4997769;28;20526;-83
2021/12/07 00:27:53;;;;;;;0.20;0.20;;;;;;;-1.97;100.00;100277.38;4992139;28;20046;-82
2021/12/07 00:30:31;;;;;;;0.20;0.20;;;;;;;-1.80;100.00;100295.63;4995579;28;20466;-82
2021/12/07 00:33:16;;;;;;;0.20;0.20;;;;;;;-1.85;100.00;100292.75;4994916;28;20464;-81
2021/12/07 00:35:49;;;;;;;0.20;0.20;;;;;;;-1.83;100.00;100293.38;4992050;28;20055;-82
2021/12/07 00:38:20;;;;;;;0.10;0.10;;;;;;;-1.85;100.00;100287.41;4998541;28;20050;-82
2021/12/07 00:40:49;;;;;;;0.20;0.20;;;;;;;-1.86;100.00;100286.59;4992826;28;20387;-82
2021/12/07 00:43:26;;;;;;;0.25;0.25;;;;;;;-1.92;100.00;100274.94;4993960;28;20057;-82
2021/12/07 00:45:57;;;;;;;0.20;0.20;;;;;;;-1.86;100.00;100275.94;4991882;28;20050;-82
2021/12/07 00:48:31;;;;;;;0.20;0.20;;;;;;;-1.86;100.00;100272.44;4991595;28;20050;-81
2021/12/07 00:50:59;;;;;;;0.20;0.20;;;;;;;-1.86;100.00;100265.28;4993742;28;20046;-82
2021/12/07 00:53:32;;;;;;;0.20;0.20;;;;;;;-1.85;100.00;100264.25;4991991;28;20054;-82
2021/12/07 00:56:06;;;;;;;0.20;0.20;;;;;;;-1.92;100.00;100260.75;4987260;28;20804;-82
2021/12/07 00:58:36;;;;;;;0.20;0.20;;;;;;;-1.91;100.00;100265.88;5000117;28;20065;-82
2021/12/07 01:01:11;;;;;;;0.30;0.30;;;;;;;-1.95;100.00;100267.31;4997001;28;20073;-82
2021/12/07 01:03:46;;;;;;;0.20;0.20;;;;;;;-1.88;100.00;100267.31;4992135;28;20054;-82
2021/12/07 01:06:25;;;;;;;0.17;0.17;;;;;;;-1.84;100.00;100265.06;4991716;28;20073;-82
2021/12/07 01:09:10;;;;;;;0.20;0.20;;;;;;;-1.84;100.00;100270.41;4995242;28;20053;-82
2021/12/07 01:25:57;;;;;;;0.20;0.20;;;;;;;-1.74;100.00;100258.28;4993670;28;20395;-82
2021/12/07 01:28:31;;;;;;;0.20;0.20;;;;;;;-1.86;100.00;100269.75;4995716;28;20065;-82
2021/12/07 01:31:11;;;;;;;0.10;0.10;;;;;;;-1.90;100.00;100264.03;4994166;28;20367;-81
2021/12/07 01:34:02;;;;;;;0.20;0.20;;;;;;;-1.88;100.00;100272.66;4993880;28;20058;-82
2021/12/07 01:37:02;;;;;;;0.20;0.20;;;;;;;-1.95;100.00;100259.31;5021375;28;20049;-82
2021/12/07 01:49:35;;;;;;;0.20;0.20;;;;;;;-1.95;100.00;100258.50;4996084;28;20366;-83
2021/12/07 01:51:07;;;;;;;0.20;0.20;;;;;;;-1.90;100.00;100258.72;4992792;28;20050;-83
2021/12/07 01:59:33;;;;;;;0.20;0.20;;;;;;;-1.85;100.00;100244.75;4992015;28;20050;-82
2021/12/07 02:02:03;;;;;;;0.30;0.30;;;;;;;-1.89;100.00;100242.50;4986169;28;20060;-82
2021/12/07 02:04:39;;;;;;;0.20;0.20;;;;;;;-1.84;100.00;100247.19;4994508;28;20066;-82
2021/12/07 02:07:16;;;;;;;0.20;0.20;;;;;;;-1.82;100.00;100253.16;4992409;28;20069;-83
2021/12/07 02:09:56;;;;;;;0.20;0.20;;;;;;;-1.79;100.00;100249.25;4994012;28;20042;-82
2021/12/07 02:12:29;;;;;;;0.20;0.20;;;;;;;-1.83;100.00;100238.16;4990157;28;20054;-82
2021/12/07 02:15:02;;;;;;;0.10;0.10;;;;;;;-1.87;100.00;100228.94;4991045;28;20414;-82
2021/12/07 02:17:36;;;;;;;0.20;0.20;;;;;;;-1.82;100.00;100233.66;4994096;28;20046;-83
2021/12/07 02:20:08;;;;;;;0.20;0.20;;;;;;;-1.86;100.00;100224.41;4998157;28;20062;-83
2021/12/07 02:22:43;;;;;;;0.20;0.20;;;;;;;-1.81;100.00;100225.47;4995065;28;20042;-82
2021/12/07 02:25:20;;;;;;;0.10;0.10;;;;;;;-1.83;100.00;100222.16;4997745;28;20050;-82
2021/12/07 02:27:49;;;;;;;0.13;0.13;;;;;;;-1.80;100.00;100228.94;4995409;28;20045;-82
2021/12/07 02:30:20;;;;;;;0.20;0.20;;;;;;;-1.81;100.00;100227.28;4998121;28;20046;-82
2021/12/07 02:32:55;;;;;;;0.20;0.20;;;;;;;-1.80;100.00;100213.75;4990354;28;20057;-82
2021/12/07 02:35:28;;;;;;;0.20;0.20;;;;;;;-1.82;100.00;100223.81;4993438;28;20050;-82
2021/12/07 02:38:05;;;;;;;0.20;0.20;;;;;;;-1.79;100.00;100226.06;5004034;28;20046;-82
2021/12/07 02:40:39;;;;;;;0.20;0.20;;;;;;;-1.73;100.00;100222.56;5009873;28;20042;-83
2021/12/07 02:43:12;;;;;;;0.15;0.15;;;;;;;-1.72;100.00;100228.72;5000042;28;20395;-82
2021/12/07 02:45:41;;;;;;;0.20;0.20;;;;;;;-1.74;100.00;100230.75;5002788;28;20050;-82
2021/12/07 02:48:14;;;;;;;0.20;0.20;;;;;;;-1.75;100.00;100224.59;4990770;28;20058;-82
2021/12/07 02:50:50;;;;;;;0.17;0.17;;;;;;;-1.80;100.00;100223.59;4996597;28;20051;-82
2021/12/07 02:53:27;;;;;;;0.20;0.20;;;;;;;-1.76;100.00;100222.16;5010662;28;20065;-82
2021/12/07 02:55:59;;;;;;;0.13;0.13;;;;;;;-1.79;100.00;100228.72;4990531;28;20050;-81
2021/12/07 02:58:36;;;;;;;0.15;0.15;;;;;;;-1.70;100.00;100223.97;4993360;28;20057;-82
2021/12/07 03:01:16;;;;;;;0.20;0.20;;;;;;;-1.73;100.00;100230.56;4991398;28;20390;-83
2021/12/07 03:04:00;;;;;;;0.20;0.20;;;;;;;-1.73;100.00;100230.56;4995386;28;20050;-82
2021/12/07 03:06:47;;;;;;;0.20;0.20;;;;;;;-1.81;100.00;100219.28;4996213;28;20050;-82
2021/12/07 03:09:46;;;;;;;0.17;0.17;;;;;;;-1.67;100.00;100226.25;4993908;28;20058;-83
2021/12/07 03:26:32;;;;;;;0.20;0.20;;;;;;;-1.88;100.00;100230.81;4992842;28;20419;-82
2021/12/07 03:29:01;;;;;;;0.20;0.20;;;;;;;-1.83;100.00;100232.84;4997276;28;20061;-83
2021/12/07 03:31:36;;;;;;;0.20;0.20;;;;;;;-1.79;100.00;100234.06;4993361;28;20039;-83
2021/12/07 03:34:09;;;;;;;0.20;0.20;;;;;;;-1.77;100.00;100229.34;4994719;28;20681;-81
2021/12/07 03:36:43;;;;;;;0.20;0.20;;;;;;;-1.84;100.00;100231.19;5000279;28;20113;-80
2021/12/07 03:39:17;;;;;;;0.20;0.20;;;;;;;-1.82;100.00;100230.97;4993082;28;20391;-81
2021/12/07 03:41:52;;;;;;;0.20;0.20;;;;;;;-1.86;100.00;100238.59;5002314;28;20046;-80
2021/12/07 03:44:26;;;;;;;0.20;0.20;;;;;;;-1.85;100.00;100248.25;4994012;28;20505;-80
2021/12/07 03:46:55;;;;;;;0.20;0.20;;;;;;;-1.76;100.00;100256.84;4992637;28;20046;-80
2021/12/07 03:49:25;;;;;;;0.20;0.20;;;;;;;-1.88;100.00;100241.47;4994303;28;20487;-80
2021/12/07 03:51:53;;;;;;;0.20;0.20;;;;;;;-1.81;100.00;100251.28;4993692;28;20045;-80
2021/12/07 03:54:27;;;;;;;0.28;0.28;;;;;;;-1.76;100.00;100262.97;4997125;28;20046;-81
2021/12/07 03:56:57;;;;;;;0.20;0.20;;;;;;;-1.68;100.00;100264.63;4992072;28;20085;-80
2021/12/07 03:59:25;;;;;;;0.20;0.20;;;;;;;-1.72;100.00;100261.53;4995389;28;20054;-81
2021/12/07 04:01:58;;;;;;;0.20;0.20;;;;;;;-1.67;100.00;100268.94;4994870;28;20038;-80
2021/12/07 04:04:28;;;;;;;0.20;0.20;;;;;;;-1.80;100.00;100258.28;4993301;28;20050;-81
2021/12/07 04:07:01;;;;;;;0.20;0.20;;;;;;;-1.73;100.00;100259.06;4995836;28;20042;-82
2021/12/07 04:09:35;;;;;;;0.30;0.30;;;;;;;-1.81;100.00;100256.63;4999574;28;20122;-81
2021/12/07 04:12:05;;;;;;;0.10;0.10;;;;;;;-1.83;100.00;100272.84;4996693;28;20042;-81
2021/12/07 04:14:39;;;;;;;0.20;0.20;;;;;;;-1.83;100.00;100277.38;4994878;28;20054;-81
2021/12/07 04:17:12;;;;;;;0.10;0.10;;;;;;;-1.81;100.00;100275.31;4992059;28;20046;-82
2021/12/07 04:19:45;;;;;;;0.20;0.20;;;;;;;-1.88;100.00;100275.31;4993039;28;20379;-80
2021/12/07 04:22:14;;;;;;;0.20;0.20;;;;;;;-1.92;100.00;100268.75;4989298;28;20661;-81
2021/12/07 04:24:42;;;;;;;0.30;0.30;;;;;;;-1.96;100.00;100268.38;4993880;28;20046;-81
2021/12/07 04:27:17;;;;;;;0.20;0.20;;;;;;;-1.93;100.00;100280.47;5001691;28;20046;-81
2021/12/07 04:29:50;;;;;;;0.20;0.20;;;;;;;-1.92;100.00;100276.75;4994148;28;20154;-80
2021/12/07 04:32:23;;;;;;;0.20;0.20;;;;;;;-1.89;100.00;100276.38;4995011;28;20053;-80
2021/12/07 04:34:52;;;;;;;0.30;0.30;;;;;;;-1.90;100.00;100280.03;4999061;28;20042;-81
2021/12/07 04:37:25;;;;;;;0.20;0.20;;;;;;;-1.82;100.00;100279.84;5005595;28;20128;-81
2021/12/07 04:39:58;;;;;;;0.20;0.20;;;;;;;-1.81;100.00;100276.16;4999516;28;20053;-80
2021/12/07 04:42:33;;;;;;;0.20;0.20;;;;;;;-1.81;100.00;100284.16;4996959;28;20061;-80
2021/12/07 04:45:05;;;;;;;0.20;0.20;;;;;;;-1.75;100.00;100277.16;4998870;28;20647;-81
2021/12/07 04:47:49;;;;;;;0.20;0.20;;;;;;;-1.85;100.00;100274.91;4992720;28;20053;-81
2021/12/07 04:50:37;;;;;;;0.20;0.20;;;;;;;-1.89;100.00;100255.84;4991178;28;20046;-80
2021/12/07 04:58:53;;;;;;;0.20;0.20;;;;;;;-1.80;100.00;100276.94;5007486;28;20058;-80
2021/12/07 05:01:26;;;;;;;0.20;0.20;;;;;;;-1.81;100.00;100276.16;4994326;28;20057;-81
2021/12/07 05:04:06;;;;;;;0.20;0.20;;;;;;;-1.88;100.00;100265.47;5002420;28;20049;-80
2021/12/07 05:06:40;;;;;;;0.20;0.20;;;;;;;-1.82;100.00;100274.50;4991094;28;20042;-80
2021/12/07 05:09:31;;;;;;;0.20;0.20;;;;;;;-1.36;100.00;100267.38;5002270;28;20057;-80
2021/12/07 05:12:22;;;;;;;0.20;0.20;;;;;;;-1.78;100.00;100261.53;4994247;28;20686;-81
2021/12/07 05:15:04;;;;;;;0.20;0.20;;;;;;;-1.82;100.00;100273.66;4992113;28;20042;-80
2021/12/07 05:40:29;;;;;;;0.20;0.20;;;;;;;-1.80;100.00;100267.09;4951461;28;20057;-80
2021/12/07 05:43:04;;;;;;;0.20;0.20;;;;;;;-1.78;100.00;100278.38;4991196;28;20424;-80
2021/12/07 05:45:39;;;;;;;0.17;0.17;;;;;;;-1.74;100.00;100281.44;4990955;28;20057;-80
2021/12/07 05:48:10;;;;;;;0.13;0.13;;;;;;;-1.76;100.00;100284.31;4997534;28;20053;-80
2021/12/07 05:50:40;;;;;;;0.20;0.20;;;;;;;-1.78;100.00;100278.38;4995428;28;20479;-80
2021/12/07 05:53:14;;;;;;;0.20;0.20;;;;;;;-1.78;100.00;100278.38;4999483;28;20049;-80
2021/12/07 05:55:42;;;;;;;0.20;0.20;;;;;;;-1.77;100.00;100279.19;4994246;28;20058;-80
2021/12/07 05:58:17;;;;;;;0.20;0.20;;;;;;;-1.76;100.00;100281.66;4994343;28;20042;-81
2021/12/07 06:00:51;;;;;;;0.20;0.20;;;;;;;-1.74;100.00;100276.09;4992905;28;20073;-80
2021/12/07 06:03:27;;;;;;;0.20;0.20;;;;;;;-1.80;100.00;100283.09;4992749;28;20058;-80
2021/12/07 06:06:03;;;;;;;0.22;0.22;;;;;;;-1.83;100.00;100272.03;4991797;28;20061;-80
2021/12/07 06:08:36;;;;;;;0.22;0.22;;;;;;;-1.77;100.00;100292.53;4993916;28;20046;-81
2021/12/07 06:11:10;;;;;;;0.20;0.20;;;;;;;-1.76;100.00;100288.84;4992884;28;20046;-81
2021/12/07 06:13:43;;;;;;;0.20;0.20;;;;;;;-1.82;100.00;100292.34;4991448;28;20053;-81
2021/12/07 06:16:17;;;;;;;0.20;0.20;;;;;;;-1.83;100.00;100288.84;4994072;28;20050;-81
2021/12/07 06:18:52;;;;;;;0.20;0.20;;;;;;;-1.82;100.00;100295.84;4987308;28;20050;-80
2021/12/07 06:21:28;;;;;;;0.20;0.20;;;;;;;-1.86;100.00;100294.59;4990795;28;20085;-80
2021/12/07 06:24:01;;;;;;;0.20;0.20;;;;;;;-1.82;100.00;100306.50;4991482;28;20077;-81
2021/12/07 06:26:35;;;;;;;0.20;0.20;;;;;;;-2.00;100.00;100285.81;4993054;28;20386;-80
2021/12/07 06:29:08;;;;;;;0.20;0.20;;;;;;;-1.81;100.00;100309.97;4989888;28;20463;-80
2021/12/07 06:31:41;;;;;;;0.20;0.20;;;;;;;-1.84;100.00;100305.06;4991815;28;20062;-81
2021/12/07 06:34:16;;;;;;;0.20;0.20;;;;;;;-1.84;100.00;100300.53;4992823;28;20078;-80
2021/12/07 06:36:44;;;;;;;0.10;0.10;;;;;;;-1.83;100.00;100312.84;4991924;28;20042;-80
2021/12/07 06:39:20;;;;;;;0.20;0.20;;;;;;;-1.88;100.00;100304.66;4987788;28;20057;-80
2021/12/07 06:41:54;;;;;;;0.10;0.10;;;;;;;-1.84;100.00;100319.22;4990110;28;20495;-79
2021/12/07 06:44:22;;;;;;;0.20;0.20;;;;;;;-1.79;100.00;100305.28;4990412;28;20050;-80
2021/12/07 06:46:51;;;;;;;0.20;0.20;;;;;;;-1.82;100.00;100311.00;4992733;28;20038;-80
2021/12/07 06:49:21;;;;;;;0.17;0.17;;;;;;;-1.78;100.00;100312.22;4995239;28;20053;-80
2021/12/07 06:51:54;;;;;;;0.20;0.20;;;;;;;-1.82;100.00;100308.34;4995644;28;20057;-80
2021/12/07 06:54:28;;;;;;;0.20;0.20;;;;;;;-1.80;100.00;100314.31;4989757;28;20049;-81
2021/12/07 06:57:01;;;;;;;0.20;0.20;;;;;;;-1.79;100.00;100315.94;4994858;28;20596;-80
2021/12/07 06:59:34;;;;;;;0.20;0.20;;;;;;;-1.79;100.00;100318.63;4990881;28;20475;-80
2021/12/07 07:02:07;;;;;;;0.20;0.20;;;;;;;-1.78;100.00;100323.75;4994064;28;20080;-81
2021/12/07 07:04:42;;;;;;;0.20;0.20;;;;;;;-1.79;100.00;100323.94;4994723;28;20058;-80
2021/12/07 07:07:10;;;;;;;0.20;0.20;;;;;;;-1.79;100.00;100327.44;4993384;28;20158;-81
2021/12/07 07:09:43;;;;;;;0.20;0.20;;;;;;;-1.76;100.00;100332.34;4989305;28;20051;-80
2021/12/07 07:12:17;;;;;;;0.20;0.20;;;;;;;-1.68;100.00;100341.19;4980090;28;20046;-81
2021/12/07 07:14:50;;;;;;;0.20;0.20;;;;;;;-1.80;100.00;100338.31;4996074;28;20039;-80
2021/12/07 07:17:18;;;;;;;0.20;0.20;;;;;;;-1.82;100.00;100335.00;4997286;28;20046;-80
2021/12/07 07:19:53;;;;;;;0.20;0.20;;;;;;;-1.90;100.00;100330.72;4999584;28;20057;-82
2021/12/07 07:22:26;;;;;;;0.30;0.30;;;;;;;-1.76;100.00;100337.69;4996393;28;20050;-80
2021/12/07 07:24:55;;;;;;;0.20;0.20;;;;;;;-1.74;100.00;100346.31;5026886;28;20045;-80
2021/12/07 07:27:23;;;;;;;0.20;0.20;;;;;;;-1.72;100.00;100352.25;4993366;28;20166;-81
2021/12/07 07:29:56;;;;;;;0.20;0.20;;;;;;;-1.74;100.00;100351.66;4995116;28;20086;-81
2021/12/07 07:32:30;;;;;;;0.20;0.20;;;;;;;-1.75;100.00;100350.00;4993742;28;20046;-81
2021/12/07 07:35:08;;;;;;;0.20;0.20;;;;;;;-1.75;100.00;100352.66;4992415;28;20383;-80
2021/12/07 07:37:41;;;;;;;0.20;0.20;;;;;;;-1.73;100.00;100361.28;4994616;28;20069;-80
2021/12/07 07:40:13;;;;;;;0.20;0.20;;;;;;;-1.72;100.00;100354.91;4996969;28;20046;-80
2021/12/07 07:42:47;;;;;;;0.10;0.10;;;;;;;-1.68;100.00;100365.19;4994058;28;20399;-81
2021/12/07 07:45:42;;;;;;;0.20;0.20;;;;;;;-1.76;100.00;100352.88;4993608;28;20398;-81
2021/12/07 07:48:17;;;;;;;0.20;0.20;;;;;;;-1.66;100.00;100369.28;4996547;28;20050;-81
2021/12/07 07:50:52;;;;;;;0.30;0.30;;;;;;;-1.70;100.00;100360.03;4991467;28;20387;-79
2021/12/07 07:53:21;;;;;;;0.20;0.20;;;;;;;-1.68;100.00;100376.69;4993605;28;20049;-80
2021/12/07 07:55:57;;;;;;;0.20;0.20;;;;;;;-1.60;100.00;100380.97;4998223;28;20043;-80
2021/12/07 07:58:25;;;;;;;0.20;0.20;;;;;;;-1.65;100.00;100373.59;4991347;28;20058;-80
2021/12/07 08:00:59;;;;;;;0.20;0.20;;;;;;;-1.63;100.00;100379.56;4988437;28;20046;-81
2021/12/07 08:03:32;;;;;;;0.20;0.20;;;;;;;-1.59;100.00;100380.78;4991428;28;20057;-81
2021/12/07 08:06:02;;;;;;;0.20;0.20;;;;;;;-1.62;100.00;100388.38;4995150;28;20050;-81
2021/12/07 08:08:35;;;;;;;0.20;0.20;;;;;;;-1.63;100.00;100376.88;4994647;28;20590;-81
2021/12/07 08:11:08;;;;;;;0.20;0.20;;;;;;;-1.58;100.00;100370.91;4987322;28;20702;-79
2021/12/07 08:13:36;;;;;;;0.20;0.20;;;;;;;-1.60;100.00;100381.81;4984265;28;20059;-79
2021/12/07 08:16:15;;;;;;;0.20;0.20;;;;;;;-1.64;100.00;100380.56;4990005;28;20050;-82
2021/12/07 08:18:44;;;;;;;0.20;0.20;;;;;;;-1.61;100.00;100387.34;4983726;28;20058;-81
2021/12/07 08:21:19;;;;;;;0.20;0.20;;;;;;;-1.61;100.00;100393.50;4988341;28;20043;-80
2021/12/07 08:23:53;;;;;;;0.20;0.20;;;;;;;-1.60;100.00;100388.97;4989546;28;20054;-81
2021/12/07 08:26:24;;;;;;;0.20;0.20;;;;;;;-1.61;100.00;100390.81;4985105;28;20053;-81
2021/12/07 08:28:54;;;;;;;0.22;0.22;;;;;;;-1.63;100.00;100392.06;4993062;28;20057;-80
2021/12/07 08:31:29;;;;;;;0.20;0.20;;;;;;;-1.62;100.00;100394.50;4988578;28;20066;-80
2021/12/07 08:33:57;;;;;;;0.30;0.30;;;;;;;-1.61;100.00;100390.00;5009090;28;20054;-84
2021/12/07 08:36:27;;;;;;;0.20;0.20;;;;;;;-1.65;100.00;100378.13;4982715;28;20054;-80
2021/12/07 08:39:01;;;;;;;0.20;0.20;;;;;;;-1.62;100.00;100386.50;4975081;28;21206;-81
2021/12/07 08:41:29;;;;;;;0.20;0.20;;;;;;;-1.57;100.00;100392.06;4970895;28;21390;-81
2021/12/07 08:43:58;;;;;;;0.20;0.20;;;;;;;-1.58;100.00;100397.59;4972023;28;20050;-81
2021/12/07 08:46:26;;;;;;;0.22;0.22;;;;;;;-1.57;100.00;100401.91;4976255;28;20051;-81
2021/12/07 08:48:59;;;;;;;0.20;0.20;;;;;;;-1.57;100.00;100396.59;4974415;28;20076;-81
2021/12/07 08:51:30;;;;;;;0.28;0.28;;;;;;;-1.55;100.00;100395.34;4977984;28;20380;-81
2021/12/07 08:54:20;;;;;;;0.20;0.20;;;;;;;-1.48;100.00;100395.31;4975113;28;20046;-81
2021/12/07 08:59:45;;;;;;;0.17;0.17;;;;;;;-1.50;100.00;100407.25;4975265;28;20055;-81
2021/12/07 09:02:21;;;;;;;0.20;0.20;;;;;;;-1.51;100.00;100398.41;4978327;28;20053;-81
2021/12/07 09:04:51;;;;;;;0.20;0.20;;;;;;;-1.52;100.00;100394.09;4976356;28;20755;-82
2021/12/07 09:07:26;;;;;;;0.20;0.20;;;;;;;-1.41;100.00;100406.84;4972255;28;20061;-81
2021/12/07 09:09:54;;;;;;;0.25;0.25;;;;;;;-1.44;100.00;100390.41;4972200;28;20069;-81
2021/12/07 09:12:29;;;;;;;0.20;0.20;;;;;;;-1.42;100.00;100402.50;4970618;28;20057;-81
2021/12/07 09:14:57;;;;;;;0.20;0.20;;;;;;;-1.41;100.00;100403.31;4975817;28;20415;-81
2021/12/07 09:17:31;;;;;;;0.20;0.20;;;;;;;-1.41;100.00;100404.16;4969823;28;20057;-81
2021/12/07 09:20:05;;;;;;;0.30;0.30;;;;;;;-1.39;100.00;100406.63;4969938;28;20062;-80
2021/12/07 09:22:35;;;;;;;0.20;0.20;;;;;;;-1.43;100.00;100408.88;4970392;28;20396;-81
2021/12/07 09:25:08;;;;;;;0.20;0.20;;;;;;;-1.37;100.00;100413.41;4975455;28;20054;-80
2021/12/07 09:27:41;;;;;;;0.30;0.30;;;;;;;-1.33;100.00;100421.78;4973731;28;20050;-81
2021/12/07 09:30:18;;;;;;;0.20;0.20;;;;;;;-1.21;100.00;100420.13;4968933;28;20054;-81
2021/12/07 09:32:52;;;;;;;0.30;0.30;;;;;;;-1.21;100.00;100419.31;4967864;28;20050;-79
2021/12/07 09:35:26;;;;;;;0.20;0.20;;;;;;;-1.23;100.00;100427.56;4967764;28;20584;-80
2021/12/07 09:37:56;;;;;;;0.20;0.20;;;;;;;-1.27;100.00;100423.66;4969860;28;20054;-80
2021/12/07 09:40:29;;;;;;;0.20;0.20;;;;;;;-1.27;100.00;100412.97;4970907;28;20058;-80
2021/12/07 09:42:58;;;;;;;0.20;0.20;;;;;;;-1.27;100.00;100407.63;4972707;28;20058;-80
2021/12/07 09:45:30;;;;;;;0.20;0.20;;;;;;;-1.29;100.00;100408.88;4972431;28;20058;-79
2021/12/07 09:48:06;;;;;;;0.20;0.20;;;;;;;-1.22;100.00;100409.66;4975535;28;20498;-80
2021/12/07 09:50:42;;;;;;;0.20;0.20;;;;;;;-1.19;100.00;100417.25;4973576;28;20070;-81
2021/12/07 09:53:15;;;;;;;0.20;0.20;;;;;;;-1.15;100.00;100413.13;4970515;28;20058;-79
2021/12/07 09:55:49;;;;;;;0.30;0.30;;;;;;;-1.17;100.00;100419.72;4964018;28;20058;-82
2021/12/07 09:58:23;;;;;;;0.20;0.20;;;;;;;-1.13;100.00;100418.25;4971925;28;20061;-82
2021/12/07 10:00:57;;;;;;;0.20;0.20;;;;;;;-1.18;100.00;100415.41;4969377;28;20054;-82
2021/12/07 10:03:30;;;;;;;0.25;0.25;;;;;;;-1.18;100.00;100415.41;4966169;28;20054;-80
2021/12/07 10:06:04;;;;;;;0.20;0.20;;;;;;;-1.17;100.00;100423.22;4999498;28;20069;-81
2021/12/07 10:08:38;;;;;;;0.20;0.20;;;;;;;-1.15;100.00;100407.78;4985867;28;20414;-81
2021/12/07 10:11:13;;;;;;;0.20;0.20;;;;;;;-1.04;100.00;100417.03;4967571;28;20585;-82
2021/12/07 10:13:50;;;;;;;0.20;0.20;;;;;;;-1.14;100.00;100413.97;4963838;28;20042;-82
2021/12/07 10:16:23;;;;;;;0.20;0.20;;;;;;;-1.11;100.00;100410.88;4969899;28;20051;-81
2021/12/07 10:18:57;;;;;;;0.20;0.20;;;;;;;-1.10;100.00;100408.00;4964510;28;20538;-81
2021/12/07 10:21:27;;;;;;;0.20;0.20;;;;;;;-1.15;100.00;100415.81;4962816;28;20415;-81
2021/12/07 10:24:08;;;;;;;0.20;0.20;;;;;;;-1.16;100.00;100411.53;4960753;28;20419;-82
2021/12/07 10:26:43;;;;;;;0.20;0.20;;;;;;;-1.16;100.00;100413.34;4962433;28;20062;-81
2021/12/07 10:29:19;;;;;;;0.20;0.20;;;;;;;-1.10;100.00;100416.00;4959637;28;20371;-82
2021/12/07 10:31:54;;;;;;;0.20;0.20;;;;;;;-1.14;100.00;100408.63;4961207;28;20058;-82
2021/12/07 10:34:24;;;;;;;0.20;0.20;;;;;;;-1.12;100.00;100404.72;4978537;28;20050;-81
2021/12/07 10:37:07;;;;;;;0.28;0.28;;;;;;;-1.08;100.00;100405.94;4966042;28;20050;-81
2021/12/07 10:39:44;;;;;;;0.20;0.20;;;;;;;-1.09;100.00;100408.81;4967531;28;20509;-81
2021/12/07 10:42:20;;;;;;;0.30;0.30;;;;;;;-0.97;100.00;100400.97;4962955;28;20053;-81
2021/12/07 10:44:54;;;;;;;0.20;0.20;;;;;;;-1.12;100.00;100402.06;4970386;28;20050;-82
2021/12/07 10:47:24;;;;;;;0.22;0.22;;;;;;;-0.98;100.00;100402.00;4964764;28;20054;-81
2021/12/07 10:49:59;;;;;;;0.20;0.20;;;;;;;-1.01;100.00;100394.41;4965476;28;20054;-82
2021/12/07 10:52:34;;;;;;;0.20;0.20;;;;;;;-1.06;100.00;100395.06;4965310;28;20050;-81
2021/12/07 10:55:13;;;;;;;0.30;0.30;;;;;;;-1.00;100.00;100401.41;4966989;28;20058;-82
2021/12/07 10:57:44;;;;;;;0.20;0.20;;;;;;;-1.14;100.00;100393.41;4967916;28;20058;-81
2021/12/07 11:00:21;;;;;;;0.20;0.20;;;;;;;-1.10;100.00;100381.28;4963461;28;20065;-81
2021/12/07 11:02:57;;;;;;;0.20;0.20;;;;;;;-1.07;100.00;100372.84;4966206;28;20394;-81
2021/12/07 11:05:34;;;;;;;0.20;0.20;;;;;;;-1.08;100.00;100373.06;4971765;28;20058;-81
2021/12/07 11:08:09;;;;;;;0.30;0.30;;;;;;;-1.09;100.00;100379.44;4969697;28;20655;-81
2021/12/07 11:10:43;;;;;;;0.20;0.20;;;;;;;-1.17;100.00;100375.16;4964158;28;20092;-80
2021/12/07 11:13:21;;;;;;;0.20;0.20;;;;;;;-1.14;100.00;100381.94;4967456;28;20046;-81
2021/12/07 11:15:57;;;;;;;0.20;0.20;;;;;;;-1.08;100.00;100386.41;4974089;28;20058;-81
2021/12/07 11:18:33;;;;;;;0.20;0.20;;;;;;;-1.12;100.00;100379.84;4967600;28;20049;-81
2021/12/07 11:21:04;;;;;;;0.20;0.20;;;;;;;-1.08;100.00;100371.22;4967810;28;20073;-80
2021/12/07 11:23:40;;;;;;;0.20;0.20;;;;;;;-1.06;100.00;100371.03;4969629;28;20074;-81
2021/12/07 11:31:56;;;;;;;0.20;0.20;;;;;;;-1.10;100.00;100396.50;4967742;28;20562;-80
2021/12/07 11:34:31;;;;;;;0.20;0.20;;;;;;;-1.14;100.00;100381.94;4963929;28;20050;-81
2021/12/07 11:37:07;;;;;;;0.20;0.20;;;;;;;-1.09;100.00;100404.31;4967629;28;20053;-81
2021/12/07 11:39:47;;;;;;;0.20;0.20;;;;;;;-1.16;100.00;100402.66;4969145;28;20073;-81
2021/12/07 11:42:25;;;;;;;0.20;0.20;;;;;;;-1.11;100.00;100413.56;4964127;28;20772;-80
2021/12/07 11:45:01;;;;;;;0.20;0.20;;;;;;;-1.02;100.00;100414.97;4966724;28;20057;-80
2021/12/07 11:47:36;;;;;;;0.20;0.20;;;;;;;-1.03;100.00;100416.00;4963076;28;20130;-83
2021/12/07 11:50:18;;;;;;;0.17;0.17;;;;;;;-1.06;100.00;100408.41;4968543;28;20046;-81
2021/12/07 11:52:53;;;;;;;0.20;0.20;;;;;;;-1.17;100.00;100383.16;4973730;28;20050;-82
2021/12/07 11:55:29;;;;;;;0.20;0.20;;;;;;;-1.22;100.00;100374.94;4965642;28;20077;-81
2021/12/07 11:58:05;;;;;;;0.20;0.20;;;;;;;-1.12;100.00;100382.53;4968004;28;20068;-81
2021/12/07 12:00:42;;;;;;;0.20;0.20;;;;;;;-1.11;100.00;100382.31;4964725;28;20407;-81
2021/12/07 12:03:12;;;;;;;0.20;0.20;;;;;;;-1.06;100.00;100387.03;4970763;28;20061;-82
2021/12/07 12:05:48;;;;;;;0.30;0.30;;;;;;;-1.11;100.00;100382.31;4965236;28;20057;-81
2021/12/07 12:08:22;;;;;;;0.20;0.20;;;;;;;-1.06;100.00;100374.50;4967689;28;20097;-82
2021/12/07 12:10:59;;;;;;;0.20;0.20;;;;;;;-1.11;100.00;100363.63;4968526;28;20050;-81
2021/12/07 12:13:45;;;;;;;0.20;0.20;;;;;;;-1.06;100.00;100357.66;4969300;28;20814;-82
2021/12/07 12:16:25;;;;;;;0.20;0.20;;;;;;;-0.96;100.00;100366.03;4980491;28;20600;-80
2021/12/07 12:19:07;;;;;;;0.20;0.20;;;;;;;-1.07;100.00;100351.47;4967775;28;20054;-80
2021/12/07 12:21:43;;;;;;;0.20;0.20;;;;;;;-1.06;100.00;100366.50;4967098;28;20054;-80
2021/12/07 12:24:18;;;;;;;0.20;0.20;;;;;;;-1.09;100.00;100371.41;4963776;28;20523;-81
2021/12/07 12:26:49;;;;;;;0.20;0.20;;;;;;;-1.04;100.00;100367.13;4964496;28;20054;-80
2021/12/07 12:29:22;;;;;;;0.20;0.20;;;;;;;-0.91;100.00;100368.06;4966905;28;20070;-82
2021/12/07 12:31:59;;;;;;;0.20;0.20;;;;;;;-0.99;100.00;100360.31;4967726;28;20728;-80
2021/12/07 12:34:29;;;;;;;0.20;0.20;;;;;;;-0.97;100.00;100360.91;4967941;28;20153;-81
2021/12/07 12:37:09;;;;;;;0.25;0.25;;;;;;;-1.04;100.00;100361.78;4971970;28;20871;-82
2021/12/07 12:39:46;;;;;;;0.20;0.20;;;;;;;-0.94;100.00;100372.00;4966182;28;20053;-82
2021/12/07 12:42:28;;;;;;;0.20;0.20;;;;;;;-0.82;100.00;100366.00;4966743;28;20062;-80
2021/12/07 12:45:16;;;;;;;0.20;0.20;;;;;;;-0.87;100.00;100382.63;4965030;28;20061;-81
2021/12/07 12:47:45;;;;;;;0.20;0.20;;;;;;;-0.96;100.00;100378.59;4965115;28;20058;-80
2021/12/07 12:50:21;;;;;;;0.28;0.28;;;;;;;-0.96;100.00;100379.41;4968065;28;20050;-82
2021/12/07 12:52:57;;;;;;;0.20;0.20;;;;;;;-0.80;100.00;100387.97;4968292;28;20069;-81
2021/12/07 12:55:36;;;;;;;0.20;0.20;;;;;;;-0.83;100.00;100386.53;4965074;28;20065;-82
2021/12/07 12:58:08;;;;;;;0.20;0.20;;;;;;;-0.83;100.00;100381.19;4966700;28;20804;-81
2021/12/07 13:01:04;;;;;;;0.20;0.20;;;;;;;-0.84;100.00;100386.75;4968009;28;20051;-81
2021/12/07 13:03:49;;;;;;;0.20;0.20;;;;;;;-0.79;100.00;100382.41;4968663;28;20046;-81
2021/12/07 13:06:42;;;;;;;0.20;0.20;;;;;;;-0.80;100.00;100393.31;4969703;28;20065;-81
2021/12/07 13:09:41;;;;;;;0.20;0.20;;;;;;;-0.75;100.00;100393.50;4966355;28;20444;-80
2021/12/07 13:12:17;;;;;;;0.20;0.20;;;;;;;-0.79;100.00;100398.44;4952649;28;20082;-81